CPA831 KJFK-VHHH
Flight info
| Callsign | CPA831 |
|---|---|
| Flight time | N/A |
| Altitude | 31000 |
| Route | GREKI DCT PUXER DCT 50N073W 55N073W 60N072W 65N071W 70N070W/M084F330 DCT DAPAK DCT 80N060W 84N050W DCT ABERI/K0893F330 M153 RAVUL/K0911F350 M153 LUMIG/K0883F370 M153 SERNA/K0878S1130 Y520 POLHO/K0876S1100 G218 UKBAD/K0885S1160 G218 TMR/K0880S1130 B458 DADGA/K0880S1160 W37 GUSIV/K0891S1190 W37 PEXID/K0889S1160 W37 OMBEB/K0889S1190 R473 NNX/K0887S1160 R473 WYN W18 NLG W23 ZUH R473 SIERA |
| Aircraft | B77W/H-SDE1E2E3FGHIJ2J3J4J5M1RWXY/LB1D1 |
Departure
| Time | N/A |
|---|---|
| Airport | John F. Kennedy International Airport (KJFK) |
Arrival
| Time | 2026-05-08 02:06 |
|---|---|
| Airport | Hong Kong International Airport (VHHH) |
| Time | Latitude | Longitude | Altitude | Speed | Heading |
|---|---|---|---|---|---|
| 2026-05-08 01:39 | 23.32894 | 113.80265 | 36085 ft | 490 kts | 201° |
| 2026-05-08 01:40 | 23.26341 | 113.78288 | 36092 ft | 488 kts | 201° |
| 2026-05-08 01:40 | 23.19787 | 113.76312 | 36105 ft | 488 kts | 201° |
| 2026-05-08 01:41 | 23.13247 | 113.74342 | 36100 ft | 487 kts | 201° |
| 2026-05-08 01:41 | 23.06757 | 113.72387 | 36111 ft | 487 kts | 201° |
| 2026-05-08 01:42 | 23.00219 | 113.70422 | 36109 ft | 487 kts | 201° |
| 2026-05-08 01:42 | 22.93667 | 113.68456 | 36106 ft | 488 kts | 201° |
| 2026-05-08 01:43 | 22.87185 | 113.66512 | 35697 ft | 476 kts | 201° |
| 2026-05-08 01:43 | 22.84002 | 113.65546 | 34968 ft | 478 kts | 201° |
| 2026-05-08 01:43 | 22.80778 | 113.64558 | 34116 ft | 483 kts | 201° |
| 2026-05-08 01:43 | 22.77530 | 113.63565 | 33331 ft | 484 kts | 200° |
| 2026-05-08 01:44 | 22.74292 | 113.62580 | 32714 ft | 481 kts | 200° |
| 2026-05-08 01:44 | 22.71084 | 113.61608 | 32239 ft | 476 kts | 200° |
| 2026-05-08 01:44 | 22.67915 | 113.60650 | 31740 ft | 471 kts | 199° |
| 2026-05-08 01:44 | 22.64756 | 113.59692 | 31055 ft | 471 kts | 199° |
| 2026-05-08 01:45 | 22.61597 | 113.58735 | 30388 ft | 472 kts | 198° |
| 2026-05-08 01:45 | 22.58435 | 113.57779 | 29636 ft | 472 kts | 198° |
| 2026-05-08 01:45 | 22.55309 | 113.56833 | 28858 ft | 472 kts | 198° |
| 2026-05-08 01:45 | 22.52138 | 113.55873 | 28095 ft | 471 kts | 198° |
| 2026-05-08 01:46 | 22.48994 | 113.54911 | 27446 ft | 469 kts | 198° |
| 2026-05-08 01:46 | 22.45874 | 113.53951 | 26874 ft | 464 kts | 198° |
| 2026-05-08 01:46 | 22.42783 | 113.52999 | 26345 ft | 459 kts | 198° |
| 2026-05-08 01:46 | 22.39724 | 113.52059 | 25812 ft | 455 kts | 198° |
| 2026-05-08 01:47 | 22.36692 | 113.51130 | 25257 ft | 451 kts | 198° |
| 2026-05-08 01:47 | 22.33681 | 113.50208 | 24739 ft | 448 kts | 198° |
| 2026-05-08 01:47 | 22.30687 | 113.49292 | 24207 ft | 445 kts | 198° |
| 2026-05-08 01:48 | 22.24756 | 113.47610 | 23061 ft | 438 kts | 189° |
| 2026-05-08 01:48 | 22.21712 | 113.47465 | 22449 ft | 438 kts | 178° |
| 2026-05-08 01:48 | 22.18706 | 113.47903 | 21950 ft | 434 kts | 168° |
| 2026-05-08 01:48 | 22.15835 | 113.48865 | 21469 ft | 429 kts | 162° |
| 2026-05-08 01:49 | 22.13064 | 113.49920 | 20965 ft | 426 kts | 162° |
| 2026-05-08 01:49 | 22.10277 | 113.50981 | 20454 ft | 423 kts | 162° |
| 2026-05-08 01:49 | 22.07505 | 113.52019 | 19928 ft | 420 kts | 162° |
| 2026-05-08 01:49 | 22.04746 | 113.53032 | 19444 ft | 417 kts | 163° |
| 2026-05-08 01:50 | 22.02011 | 113.54025 | 18972 ft | 413 kts | 163° |
| 2026-05-08 01:50 | 21.99295 | 113.55007 | 18503 ft | 410 kts | 163° |
| 2026-05-08 01:50 | 21.96616 | 113.56055 | 17980 ft | 408 kts | 160° |
| 2026-05-08 01:50 | 21.94009 | 113.57241 | 17464 ft | 405 kts | 158° |
| 2026-05-08 01:51 | 21.91436 | 113.58469 | 16966 ft | 402 kts | 158° |
| 2026-05-08 01:51 | 21.88895 | 113.59684 | 16492 ft | 398 kts | 158° |
| 2026-05-08 01:51 | 21.86366 | 113.60877 | 16005 ft | 395 kts | 159° |
| 2026-05-08 01:51 | 21.83851 | 113.62049 | 15526 ft | 392 kts | 159° |
| 2026-05-08 01:52 | 21.81358 | 113.63201 | 15059 ft | 389 kts | 159° |
| 2026-05-08 01:52 | 21.78911 | 113.64327 | 14610 ft | 386 kts | 159° |
| 2026-05-08 01:52 | 21.76423 | 113.65470 | 14156 ft | 382 kts | 159° |
| 2026-05-08 01:52 | 21.74156 | 113.66821 | 13531 ft | 380 kts | 142° |
| 2026-05-08 01:53 | 21.72454 | 113.68997 | 12925 ft | 383 kts | 120° |
| 2026-05-08 01:53 | 21.71562 | 113.71674 | 12497 ft | 380 kts | 100° |
| 2026-05-08 01:53 | 21.71529 | 113.74475 | 12075 ft | 375 kts | 80° |
| 2026-05-08 01:53 | 21.72365 | 113.77099 | 11625 ft | 370 kts | 59° |
| 2026-05-08 01:54 | 21.73953 | 113.79170 | 11390 ft | 345 kts | 39° |
| 2026-05-08 01:54 | 21.75906 | 113.80440 | 11085 ft | 316 kts | 21° |
| 2026-05-08 01:54 | 21.77963 | 113.81098 | 10630 ft | 303 kts | 9° |
| 2026-05-08 01:54 | 21.80062 | 113.81190 | 10247 ft | 301 kts | 354° |
| 2026-05-08 01:55 | 21.82128 | 113.80966 | 9980 ft | 297 kts | 353° |
| 2026-05-08 01:55 | 21.84149 | 113.80714 | 9563 ft | 288 kts | 353° |
| 2026-05-08 01:55 | 21.86143 | 113.80463 | 8871 ft | 289 kts | 353° |
| 2026-05-08 01:55 | 21.88146 | 113.80214 | 8264 ft | 289 kts | 353° |
| 2026-05-08 01:56 | 21.90132 | 113.79974 | 7740 ft | 285 kts | 353° |
| 2026-05-08 01:56 | 21.90797 | 113.79894 | 7554 ft | 284 kts | 353° |
| 2026-05-08 01:56 | 21.91540 | 113.79806 | 7356 ft | 283 kts | 353° |
| 2026-05-08 01:56 | 21.93442 | 113.79581 | 6821 ft | 281 kts | 353° |
| 2026-05-08 01:57 | 21.95378 | 113.79355 | 6263 ft | 279 kts | 353° |
| 2026-05-08 01:57 | 21.97299 | 113.79131 | 5712 ft | 277 kts | 353° |
| 2026-05-08 01:57 | 21.99236 | 113.78906 | 5300 ft | 279 kts | 354° |
| 2026-05-08 01:57 | 22.01136 | 113.78685 | 5172 ft | 271 kts | 354° |
| 2026-05-08 01:58 | 22.02978 | 113.78472 | 5070 ft | 262 kts | 354° |
| 2026-05-08 01:58 | 22.04768 | 113.78265 | 4909 ft | 255 kts | 354° |
| 2026-05-08 01:58 | 22.06520 | 113.78064 | 4695 ft | 252 kts | 354° |
| 2026-05-08 01:58 | 22.08246 | 113.77866 | 4437 ft | 250 kts | 354° |
| 2026-05-08 01:59 | 22.09973 | 113.77668 | 4150 ft | 247 kts | 353° |
| 2026-05-08 01:59 | 22.11621 | 113.77241 | 3762 ft | 246 kts | 338° |
| 2026-05-08 01:59 | 22.13176 | 113.76464 | 3474 ft | 244 kts | 334° |
| 2026-05-08 01:59 | 22.14679 | 113.75664 | 3250 ft | 242 kts | 334° |
| 2026-05-08 02:00 | 22.16180 | 113.74884 | 3087 ft | 235 kts | 335° |
| 2026-05-08 02:00 | 22.17626 | 113.74147 | 3018 ft | 224 kts | 335° |
| 2026-05-08 02:00 | 22.18991 | 113.73461 | 3017 ft | 208 kts | 335° |
| 2026-05-08 02:00 | 22.20246 | 113.72831 | 3025 ft | 190 kts | 335° |
| 2026-05-08 02:01 | 22.21435 | 113.72238 | 2985 ft | 187 kts | 335° |
| 2026-05-08 02:01 | 22.22617 | 113.71666 | 2813 ft | 185 kts | 342° |
| 2026-05-08 02:01 | 22.23876 | 113.71754 | 2594 ft | 186 kts | 29° |
| 2026-05-08 02:01 | 22.24883 | 113.72643 | 2511 ft | 189 kts | 40° |
| 2026-05-08 02:02 | 22.25872 | 113.73561 | 2497 ft | 188 kts | 39° |
| 2026-05-08 02:02 | 22.26867 | 113.74481 | 2496 ft | 188 kts | 39° |
| 2026-05-08 02:02 | 22.27801 | 113.75474 | 2397 ft | 193 kts | 56° |
| 2026-05-08 02:02 | 22.28370 | 113.76749 | 2163 ft | 183 kts | 65° |
| 2026-05-08 02:03 | 22.28842 | 113.77967 | 1930 ft | 169 kts | 69° |
| 2026-05-08 02:03 | 22.29231 | 113.79134 | 1727 ft | 162 kts | 70° |
| 2026-05-08 02:03 | 22.29586 | 113.80237 | 1531 ft | 150 kts | 70° |
| 2026-05-08 02:03 | 22.29923 | 113.81283 | 1335 ft | 147 kts | 70° |
| 2026-05-08 02:04 | 22.30263 | 113.82340 | 1150 ft | 149 kts | 70° |
| 2026-05-08 02:04 | 22.30603 | 113.83397 | 963 ft | 148 kts | 70° |
| 2026-05-08 02:04 | 22.30940 | 113.84445 | 777 ft | 147 kts | 70° |
| 2026-05-08 02:04 | 22.31273 | 113.85483 | 592 ft | 148 kts | 70° |
| 2026-05-08 02:05 | 22.31610 | 113.86534 | 387 ft | 148 kts | 71° |
| 2026-05-08 02:05 | 22.31944 | 113.87580 | 204 ft | 148 kts | 70° |
| 2026-05-08 02:05 | 22.32291 | 113.88636 | 50 ft | 148 kts | 69° |
| 2026-05-08 02:05 | 22.32600 | 113.89586 | 42 ft | 112 kts | 70° |
| 2026-05-08 02:06 | 22.32795 | 113.90189 | 42 ft | 58 kts | 72° |
| 2026-05-08 02:06 | 22.32903 | 113.90524 | 42 ft | 34 kts | 70° |
| 2026-05-08 02:06 | 22.32941 | 113.90751 | 42 ft | 30 kts | 92° |
| 2026-05-08 02:06 | 22.32912 | 113.90945 | 41 ft | 21 kts | 101° |
| 2026-05-08 02:07 | 22.32898 | 113.91071 | 43 ft | 15 kts | 80° |
| 2026-05-08 02:07 | 22.32932 | 113.91176 | 43 ft | 15 kts | 71° |
| 2026-05-08 02:07 | 22.32966 | 113.91280 | 43 ft | 15 kts | 70° |
| 2026-05-08 02:07 | 22.33000 | 113.91384 | 43 ft | 15 kts | 71° |
| 2026-05-08 02:08 | 22.33033 | 113.91489 | 43 ft | 15 kts | 71° |
| 2026-05-08 02:08 | 22.33068 | 113.91593 | 43 ft | 15 kts | 70° |
| 2026-05-08 02:08 | 22.33101 | 113.91697 | 42 ft | 15 kts | 71° |
| 2026-05-08 02:08 | 22.33135 | 113.91801 | 42 ft | 15 kts | 71° |
| 2026-05-08 02:09 | 22.33168 | 113.91905 | 42 ft | 15 kts | 71° |
| 2026-05-08 02:09 | 22.33202 | 113.92010 | 42 ft | 14 kts | 71° |
| 2026-05-08 02:09 | 22.33214 | 113.92084 | 42 ft | 10 kts | 108° |
| 2026-05-08 02:09 | 22.33158 | 113.92125 | 42 ft | 10 kts | 161° |
| 2026-05-08 02:10 | 22.33038 | 113.92169 | 42 ft | 27 kts | 161° |
| 2026-05-08 02:10 | 22.32861 | 113.92236 | 42 ft | 27 kts | 161° |
| 2026-05-08 02:10 | 22.32681 | 113.92303 | 42 ft | 27 kts | 161° |
| 2026-05-08 02:10 | 22.32500 | 113.92371 | 42 ft | 27 kts | 160° |
| 2026-05-08 02:11 | 22.32345 | 113.92430 | 42 ft | 16 kts | 161° |
| 2026-05-08 02:11 | 22.32267 | 113.92459 | 42 ft | 8 kts | 160° |
| 2026-05-08 02:11 | 22.32245 | 113.92505 | 42 ft | 8 kts | 85° |
| 2026-05-08 02:11 | 22.32263 | 113.92565 | 42 ft | 9 kts | 71° |
| 2026-05-08 02:12 | 22.32279 | 113.92627 | 42 ft | 8 kts | 93° |
| 2026-05-08 02:12 | 22.32236 | 113.92665 | 42 ft | 9 kts | 160° |
| 2026-05-08 02:12 | 22.32173 | 113.92689 | 42 ft | 10 kts | 160° |
| 2026-05-08 02:12 | 22.32097 | 113.92718 | 41 ft | 14 kts | 161° |
| 2026-05-08 02:13 | 22.32001 | 113.92754 | 40 ft | 15 kts | 161° |
| 2026-05-08 02:13 | 22.31927 | 113.92782 | 41 ft | 9 kts | 160° |
| 2026-05-08 02:13 | 22.31877 | 113.92776 | 42 ft | 8 kts | 223° |
| 2026-05-08 02:13 | 22.31851 | 113.92709 | 42 ft | 15 kts | 250° |
| 2026-05-08 02:14 | 22.31806 | 113.92568 | 42 ft | 22 kts | 251° |
| 2026-05-08 02:14 | 22.31756 | 113.92414 | 42 ft | 22 kts | 251° |
| 2026-05-08 02:14 | 22.31706 | 113.92259 | 41 ft | 22 kts | 251° |
| 2026-05-08 02:14 | 22.31662 | 113.92123 | 41 ft | 14 kts | 250° |
| 2026-05-08 02:15 | 22.31634 | 113.92045 | 41 ft | 9 kts | 236° |
| 2026-05-08 02:15 | 22.31574 | 113.92038 | 42 ft | 10 kts | 164° |
| 2026-05-08 02:15 | 22.31505 | 113.92063 | 42 ft | 13 kts | 160° |
| 2026-05-08 02:15 | 22.31393 | 113.92105 | 42 ft | 20 kts | 161° |
| 2026-05-08 02:16 | 22.31263 | 113.92154 | 42 ft | 20 kts | 161° |
| 2026-05-08 02:16 | 22.31130 | 113.92204 | 42 ft | 20 kts | 161° |
| 2026-05-08 02:16 | 22.30996 | 113.92254 | 42 ft | 20 kts | 161° |
| 2026-05-08 02:16 | 22.30908 | 113.92288 | 42 ft | 20 kts | 160° |
| 2026-05-08 02:17 | 22.30776 | 113.92337 | 42 ft | 17 kts | 160° |
| 2026-05-08 02:17 | 22.30689 | 113.92370 | 42 ft | 9 kts | 160° |
| 2026-05-08 02:17 | 22.30654 | 113.92407 | 42 ft | 7 kts | 103° |
| 2026-05-08 02:17 | 22.30672 | 113.92481 | 42 ft | 15 kts | 70° |
| 2026-05-08 02:18 | 22.30717 | 113.92620 | 42 ft | 21 kts | 71° |
| 2026-05-08 02:18 | 22.30765 | 113.92770 | 41 ft | 21 kts | 71° |
| 2026-05-08 02:18 | 22.30814 | 113.92921 | 41 ft | 21 kts | 70° |
| 2026-05-08 02:18 | 22.30862 | 113.93072 | 41 ft | 21 kts | 71° |
| 2026-05-08 02:19 | 22.30909 | 113.93216 | 42 ft | 17 kts | 70° |
| 2026-05-08 02:19 | 22.30959 | 113.93328 | 42 ft | 17 kts | 61° |
| 2026-05-08 02:19 | 22.31006 | 113.93411 | 42 ft | 11 kts | 40° |
| 2026-05-08 02:19 | 22.31074 | 113.93412 | 42 ft | 7 kts | 342° |
| 2026-05-08 02:20 | 22.31108 | 113.93432 | 42 ft | 6 kts | 55° |
| 2026-05-08 02:20 | 22.31124 | 113.93473 | 42 ft | 5 kts | 72° |
| 2026-05-08 02:20 | 22.31133 | 113.93502 | 42 ft | 3 kts | 71° |
| 2026-05-08 02:20 | 22.31136 | 113.93509 | 42 ft | 0 kts | 71° |
| 2026-05-08 02:21 | 22.31136 | 113.93510 | 42 ft | 0 kts | 71° |
| 2026-05-08 02:23 | 22.31133 | 113.93502 | 40 ft | 4 kts | 71° |
| 2026-05-08 02:24 | 22.31124 | 113.93474 | 40 ft | 4 kts | 71° |
| 2026-05-08 02:24 | 22.31115 | 113.93446 | 38 ft | 4 kts | 71° |
| 2026-05-08 02:24 | 22.31108 | 113.93423 | 39 ft | 4 kts | 85° |
| 2026-05-08 02:24 | 22.31113 | 113.93399 | 36 ft | 4 kts | 142° |
| 2026-05-08 02:25 | 22.31137 | 113.93388 | 40 ft | 4 kts | 167° |
| 2026-05-08 02:25 | 22.31152 | 113.93384 | 40 ft | 0 kts | 161° |
| 2026-05-08 02:25 | 22.31152 | 113.93383 | 40 ft | 0 kts | 161° |
| 2026-05-08 02:30 | 22.31150 | 113.93384 | 39 ft | 5 kts | 161° |
| 2026-05-08 02:30 | 22.31088 | 113.93408 | 40 ft | 11 kts | 161° |
| 2026-05-08 02:30 | 22.31015 | 113.93414 | 42 ft | 15 kts | 205° |
| 2026-05-08 02:37 | 22.31014 | 113.93413 | 42 ft | 2 kts | 205° |
| 2026-05-08 02:37 | 22.30974 | 113.93359 | 36 ft | 13 kts | 243° |
| 2026-05-08 02:37 | 22.30930 | 113.93270 | 42 ft | 13 kts | 242° |
| 2026-05-08 02:38 | 22.30924 | 113.93200 | 42 ft | 9 kts | 304° |
| 2026-05-08 02:38 | 22.30981 | 113.93161 | 40 ft | 10 kts | 333° |
| 2026-05-08 02:38 | 22.31045 | 113.93134 | 42 ft | 8 kts | 340° |
| 2026-05-08 02:38 | 22.31067 | 113.93100 | 42 ft | 6 kts | 270° |
| 2026-05-08 02:39 | 22.31059 | 113.93061 | 42 ft | 5 kts | 250° |
| 2026-05-08 02:39 | 22.31051 | 113.93035 | 42 ft | 1 kts | 250° |